createdAt,value
2022-07-26T00:01:59.226Z,28.50
2022-07-26T00:04:27.898Z,28.50
2022-07-26T00:06:55.761Z,28.40
2022-07-26T00:09:23.527Z,28.40
2022-07-26T00:11:51.563Z,28.40
2022-07-26T00:14:19.466Z,28.30
2022-07-26T00:16:47.444Z,28.30
2022-07-26T00:19:16.676Z,28.20
2022-07-26T00:21:44.578Z,28.00
2022-07-26T00:24:12.352Z,27.70
2022-07-26T00:26:40.183Z,27.50
2022-07-26T00:29:09.040Z,27.30
2022-07-26T00:31:37.083Z,27.00
2022-07-26T00:34:04.938Z,27.00
2022-07-26T00:36:32.741Z,27.00
2022-07-26T00:39:00.531Z,27.10
2022-07-26T00:41:28.238Z,26.50
2022-07-26T00:44:00.252Z,26.60
2022-07-26T00:46:28.310Z,26.60
2022-07-26T00:48:56.295Z,26.50
2022-07-26T00:51:24.534Z,26.30
2022-07-26T00:53:52.490Z,26.10
2022-07-26T00:56:20.805Z,26.20
2022-07-26T00:58:48.887Z,26.30
2022-07-26T01:01:16.643Z,26.00
2022-07-26T01:03:45.007Z,26.00
2022-07-26T01:06:12.798Z,25.80
2022-07-26T01:08:40.695Z,25.90
2022-07-26T01:11:08.490Z,26.20
2022-07-26T01:13:36.303Z,26.30
2022-07-26T01:16:04.452Z,26.40
2022-07-26T01:18:32.280Z,26.50
2022-07-26T01:21:13.040Z,26.60
2022-07-26T01:23:43.264Z,26.50
2022-07-26T01:26:11.755Z,26.50
2022-07-26T01:28:41.322Z,26.70
2022-07-26T01:31:09.214Z,26.80
2022-07-26T01:33:37.085Z,26.80
2022-07-26T01:36:05.060Z,26.50
2022-07-26T01:38:32.836Z,26.40
2022-07-26T01:41:00.627Z,26.60
2022-07-26T01:43:28.377Z,26.50
2022-07-26T01:45:56.781Z,26.50
2022-07-26T01:48:24.972Z,26.50
2022-07-26T01:50:52.752Z,26.60
2022-07-26T01:53:20.468Z,26.50
2022-07-26T01:55:48.283Z,26.40
2022-07-26T01:58:16.038Z,26.40
2022-07-26T02:00:43.904Z,26.30
2022-07-26T02:03:11.843Z,26.30
2022-07-26T02:05:39.623Z,26.20
2022-07-26T02:08:07.378Z,26.20
2022-07-26T02:10:55.766Z,26.10
2022-07-26T02:13:24.810Z,26.00
2022-07-26T02:15:52.714Z,26.20
2022-07-26T02:18:20.649Z,26.30
2022-07-26T02:20:48.435Z,26.30
2022-07-26T02:23:16.255Z,26.40
2022-07-26T02:25:44.077Z,26.30
2022-07-26T02:28:11.861Z,26.10
2022-07-26T02:30:39.808Z,25.80
2022-07-26T02:33:08.086Z,25.60
2022-07-26T02:35:36.689Z,25.90
2022-07-26T02:38:06.981Z,26.00
2022-07-26T02:40:36.259Z,25.60
2022-07-26T02:43:05.596Z,25.30
2022-07-26T02:45:33.724Z,25.30
2022-07-26T02:48:01.673Z,25.30
2022-07-26T02:50:30.023Z,25.20
2022-07-26T02:52:57.934Z,24.90
2022-07-26T02:55:27.028Z,24.80
2022-07-26T02:57:55.207Z,25.00
2022-07-26T03:00:25.593Z,25.10
2022-07-26T03:02:53.937Z,25.10
2022-07-26T03:05:22.380Z,25.00
2022-07-26T03:07:50.173Z,25.20
2022-07-26T03:10:18.191Z,25.20
2022-07-26T03:12:46.800Z,25.20
2022-07-26T03:15:14.581Z,25.20
2022-07-26T03:17:43.196Z,25.20
2022-07-26T03:20:11.832Z,25.40
2022-07-26T03:22:39.544Z,25.50
2022-07-26T03:25:07.621Z,25.60
2022-07-26T03:27:35.713Z,25.50
2022-07-26T03:30:04.756Z,25.30
2022-07-26T03:32:32.588Z,25.40
2022-07-26T03:35:00.337Z,25.50
2022-07-26T03:37:46.354Z,25.50
2022-07-26T03:40:18.493Z,25.70
2022-07-26T03:42:47.878Z,25.80
2022-07-26T03:45:16.399Z,25.80
2022-07-26T03:47:45.418Z,25.60
2022-07-26T03:50:14.070Z,25.40
2022-07-26T03:52:42.297Z,25.60
2022-07-26T03:55:29.737Z,25.60
2022-07-26T03:57:57.792Z,25.50
2022-07-26T04:00:25.747Z,25.40
2022-07-26T04:02:53.588Z,25.40
2022-07-26T04:05:23.554Z,25.50
2022-07-26T04:07:53.960Z,25.60
2022-07-26T04:10:22.848Z,25.70
2022-07-26T04:12:50.940Z,25.60
2022-07-26T04:15:19.338Z,25.50
2022-07-26T04:17:48.559Z,25.40
2022-07-26T04:20:17.368Z,25.20
2022-07-26T04:22:45.367Z,25.40
2022-07-26T04:25:13.538Z,25.50
2022-07-26T04:27:41.384Z,25.50
2022-07-26T04:30:14.774Z,25.50
2022-07-26T04:32:46.451Z,25.60
2022-07-26T04:35:15.850Z,25.80
2022-07-26T04:37:45.536Z,25.90
2022-07-26T04:40:21.077Z,25.90
2022-07-26T04:42:50.620Z,26.00
2022-07-26T04:45:19.418Z,25.70
2022-07-26T04:47:50.501Z,25.60
2022-07-26T04:50:20.793Z,25.70
2022-07-26T04:52:49.622Z,25.90
2022-07-26T04:55:18.329Z,26.00
2022-07-26T04:57:47.263Z,26.20
2022-07-26T05:00:21.896Z,26.30
2022-07-26T05:02:51.960Z,26.40
2022-07-26T05:05:20.826Z,26.40
2022-07-26T05:07:53.407Z,26.30
2022-07-26T05:10:28.047Z,26.20
2022-07-26T05:12:55.930Z,26.20
2022-07-26T05:15:23.870Z,26.10
2022-07-26T05:17:52.394Z,26.00
2022-07-26T05:20:20.146Z,26.10
2022-07-26T05:22:47.993Z,26.30
2022-07-26T05:25:15.765Z,26.60
2022-07-26T05:27:43.600Z,26.70
2022-07-26T05:30:11.628Z,26.70
2022-07-26T05:32:39.422Z,26.70
2022-07-26T05:35:08.654Z,26.50
2022-07-26T05:37:37.121Z,26.60
2022-07-26T05:40:06.338Z,26.80
2022-07-26T05:42:34.146Z,26.90
2022-07-26T05:45:02.106Z,27.00
2022-07-26T05:47:30.598Z,27.00
2022-07-26T05:49:58.523Z,27.00
2022-07-26T05:52:26.248Z,27.20
2022-07-26T05:54:53.996Z,27.20
2022-07-26T05:57:21.904Z,27.30
2022-07-26T05:59:50.085Z,27.40
2022-07-26T06:02:18.199Z,27.30
2022-07-26T06:04:47.392Z,27.20
2022-07-26T06:07:15.970Z,27.40
2022-07-26T06:09:44.328Z,27.30
2022-07-26T06:12:12.228Z,27.40
2022-07-26T06:14:40.125Z,27.70
2022-07-26T06:17:08.102Z,27.90
2022-07-26T06:19:36.306Z,27.90
2022-07-26T06:22:04.428Z,27.60
2022-07-26T06:24:32.205Z,27.50
2022-07-26T06:27:04.794Z,27.70
2022-07-26T06:29:33.817Z,27.90
2022-07-26T06:32:01.711Z,27.90
2022-07-26T06:34:30.140Z,28.10
2022-07-26T06:36:57.961Z,28.30
2022-07-26T06:39:25.715Z,28.50
2022-07-26T06:41:53.460Z,28.50
2022-07-26T06:44:23.135Z,28.60
2022-07-26T06:46:50.900Z,28.80
2022-07-26T06:49:22.480Z,28.80
2022-07-26T06:51:50.954Z,28.90
2022-07-26T06:54:18.731Z,28.80
2022-07-26T06:56:46.497Z,29.00
2022-07-26T06:59:14.268Z,29.20
2022-07-26T07:01:57.779Z,29.30
2022-07-26T07:04:30.250Z,29.30
2022-07-26T07:07:02.760Z,29.20
2022-07-26T07:09:35.001Z,29.30
2022-07-26T07:12:09.424Z,29.30
2022-07-26T07:14:39.803Z,29.20
2022-07-26T07:17:12.975Z,29.20
2022-07-26T07:19:42.172Z,29.10
2022-07-26T07:22:12.510Z,29.20
2022-07-26T07:24:41.494Z,29.20
2022-07-26T07:27:10.347Z,29.30
2022-07-26T07:29:41.199Z,29.40
2022-07-26T07:32:18.115Z,29.60
2022-07-26T07:34:48.876Z,29.60
2022-07-26T07:37:18.154Z,29.90
2022-07-26T07:39:50.660Z,29.80
2022-07-26T07:42:19.961Z,29.90
2022-07-26T07:44:47.985Z,30.00
2022-07-26T07:47:15.926Z,30.20
2022-07-26T07:49:43.821Z,30.30
2022-07-26T07:52:11.773Z,30.40
2022-07-26T07:54:39.866Z,30.40
2022-07-26T07:57:07.866Z,30.60
2022-07-26T07:59:39.425Z,30.40
2022-07-26T08:02:07.709Z,30.50
2022-07-26T08:04:36.032Z,30.70
2022-07-26T08:07:04.133Z,30.90
2022-07-26T08:09:33.886Z,30.90
2022-07-26T08:12:02.606Z,31.10
2022-07-26T08:14:30.593Z,31.00
2022-07-26T08:16:58.427Z,30.90
2022-07-26T08:19:29.273Z,31.00
2022-07-26T08:22:10.606Z,31.10
2022-07-26T08:24:38.634Z,31.20
2022-07-26T08:27:07.254Z,31.30
2022-07-26T08:29:35.013Z,31.50
2022-07-26T08:32:02.941Z,31.60
2022-07-26T08:34:30.962Z,31.50
2022-07-26T08:37:15.867Z,31.60
2022-07-26T08:39:45.030Z,31.70
2022-07-26T08:42:22.521Z,31.70
2022-07-26T08:44:51.862Z,31.70
2022-07-26T08:47:35.418Z,31.80
2022-07-26T08:50:08.673Z,31.90
2022-07-26T08:52:40.944Z,32.00
2022-07-26T08:55:10.239Z,32.20
2022-07-26T08:57:38.233Z,32.20
2022-07-26T09:00:29.926Z,32.30
2022-07-26T09:03:00.325Z,32.40
2022-07-26T09:05:33.966Z,32.30
2022-07-26T09:08:21.460Z,32.20
2022-07-26T09:10:49.313Z,32.20
2022-07-26T09:13:17.080Z,32.40
2022-07-26T09:15:44.889Z,32.50
2022-07-26T09:18:29.497Z,32.60
2022-07-26T09:20:57.605Z,32.70
2022-07-26T09:23:25.416Z,32.70
2022-07-26T09:26:03.872Z,32.70
2022-07-26T09:28:32.159Z,32.60
2022-07-26T09:31:05.991Z,32.70
2022-07-26T09:33:48.282Z,32.80
2022-07-26T09:36:16.881Z,32.80
2022-07-26T09:38:49.108Z,32.70
2022-07-26T09:41:30.825Z,32.80
2022-07-26T09:44:03.597Z,32.80
2022-07-26T09:46:32.781Z,32.90
2022-07-26T09:49:18.399Z,32.90
2022-07-26T09:51:51.156Z,32.90
2022-07-26T09:54:29.255Z,33.00
2022-07-26T09:56:57.816Z,33.10
2022-07-26T09:59:27.372Z,33.20
2022-07-26T10:01:57.945Z,33.20
2022-07-26T10:04:26.793Z,33.40
2022-07-26T10:06:54.645Z,33.50
2022-07-26T10:09:25.900Z,33.70
2022-07-26T10:12:00.828Z,33.60
2022-07-26T10:14:47.629Z,33.70
2022-07-26T10:17:29.202Z,33.70
2022-07-26T10:20:02.015Z,33.90
2022-07-26T10:22:41.352Z,33.80
2022-07-26T10:25:18.328Z,33.80
2022-07-26T10:27:49.019Z,33.90
2022-07-26T10:30:19.688Z,34.00
2022-07-26T10:33:06.562Z,34.10
2022-07-26T10:35:40.974Z,34.30
2022-07-26T10:38:22.319Z,34.30
2022-07-26T10:41:01.491Z,34.40
2022-07-26T10:43:45.513Z,34.50
2022-07-26T10:46:16.491Z,34.50
2022-07-26T10:49:08.213Z,34.40
2022-07-26T10:51:41.148Z,34.50
2022-07-26T10:54:12.406Z,34.50
2022-07-26T10:56:41.247Z,34.50
2022-07-26T10:59:09.052Z,34.70
2022-07-26T11:01:41.277Z,34.80
2022-07-26T11:04:19.430Z,34.80
2022-07-26T11:06:47.543Z,34.80
2022-07-26T11:09:16.214Z,35.00
2022-07-26T11:11:46.792Z,35.20
2022-07-26T11:14:17.815Z,35.30
2022-07-26T11:16:50.848Z,35.20
2022-07-26T11:19:21.123Z,35.40
2022-07-26T11:21:58.704Z,35.50
2022-07-26T11:24:27.315Z,35.50
2022-07-26T11:26:55.591Z,35.60
2022-07-26T11:29:38.797Z,35.70
2022-07-26T11:32:21.884Z,35.90
2022-07-26T11:35:04.087Z,35.90
2022-07-26T11:37:32.147Z,35.90
2022-07-26T11:40:00.037Z,35.80
2022-07-26T11:42:27.840Z,35.70
2022-07-26T11:44:55.643Z,35.70
2022-07-26T11:47:26.149Z,35.70
2022-07-26T11:50:16.994Z,35.60
2022-07-26T11:52:43.111Z,35.50
2022-07-26T11:55:10.875Z,35.70
2022-07-26T11:57:38.733Z,35.70
2022-07-26T12:00:07.269Z,35.80
2022-07-26T12:02:40.977Z,35.80
2022-07-26T12:05:30.576Z,35.80
2022-07-26T12:08:07.410Z,35.70
2022-07-26T12:10:35.407Z,35.90
2022-07-26T12:13:15.788Z,36.10
2022-07-26T12:15:49.151Z,36.20
2022-07-26T12:18:24.628Z,36.10
2022-07-26T12:21:05.171Z,36.10
2022-07-26T12:23:53.199Z,36.40
2022-07-26T12:26:25.996Z,36.50
2022-07-26T12:28:55.149Z,36.50
2022-07-26T12:31:30.057Z,36.50
2022-07-26T12:33:58.719Z,36.50
2022-07-26T12:36:29.414Z,36.40
2022-07-26T12:38:59.853Z,36.60
2022-07-26T12:41:36.709Z,36.50
2022-07-26T12:44:08.980Z,36.70
2022-07-26T12:46:37.462Z,36.90
2022-07-26T12:49:05.696Z,37.00
2022-07-26T12:51:34.213Z,37.00
2022-07-26T12:54:02.077Z,37.00
2022-07-26T12:56:29.896Z,36.90
2022-07-26T12:59:01.600Z,36.90
2022-07-26T13:01:31.441Z,36.90
2022-07-26T13:04:01.369Z,37.00
2022-07-26T13:06:29.271Z,36.90
2022-07-26T13:08:56.971Z,37.10
2022-07-26T13:11:25.434Z,37.20
2022-07-26T13:13:53.435Z,37.30
2022-07-26T13:16:21.302Z,37.30
2022-07-26T13:18:49.197Z,37.30
2022-07-26T13:21:17.087Z,37.20
2022-07-26T13:23:44.820Z,37.20
2022-07-26T13:26:12.629Z,36.90
2022-07-26T13:28:40.779Z,36.80
2022-07-26T13:31:08.603Z,37.10
2022-07-26T13:33:39.486Z,37.10
2022-07-26T13:36:07.386Z,37.20
2022-07-26T13:38:35.402Z,37.30
2022-07-26T13:41:03.996Z,37.30
2022-07-26T13:43:31.932Z,37.30
2022-07-26T13:45:59.732Z,37.60
2022-07-26T13:48:27.849Z,37.70
2022-07-26T13:50:57.605Z,37.70
2022-07-26T13:53:25.807Z,37.70
2022-07-26T13:55:53.778Z,37.80
2022-07-26T13:58:21.813Z,37.70
2022-07-26T14:00:49.923Z,37.60
2022-07-26T14:03:17.883Z,37.40
2022-07-26T14:05:45.794Z,37.00
2022-07-26T14:08:13.687Z,36.80
2022-07-26T14:10:41.630Z,36.70
2022-07-26T14:13:09.749Z,36.80
2022-07-26T14:15:37.975Z,36.70
2022-07-26T14:18:05.852Z,36.90
2022-07-26T14:20:33.730Z,37.00
2022-07-26T14:23:01.493Z,37.00
2022-07-26T14:25:29.450Z,37.00
2022-07-26T14:28:00.976Z,37.00
2022-07-26T14:30:29.018Z,37.00
2022-07-26T14:32:56.873Z,37.00
2022-07-26T14:35:24.728Z,36.90
2022-07-26T14:37:52.436Z,37.10
2022-07-26T14:40:20.280Z,37.00
2022-07-26T14:42:48.204Z,37.30
2022-07-26T14:45:16.087Z,37.30
2022-07-26T14:47:44.154Z,37.00
2022-07-26T14:50:14.391Z,37.00
2022-07-26T14:52:46.017Z,37.00
2022-07-26T14:55:14.934Z,37.20
2022-07-26T14:57:43.060Z,37.20
2022-07-26T15:00:14.171Z,37.10
2022-07-26T15:02:44.671Z,37.10
2022-07-26T15:05:13.877Z,37.10
2022-07-26T15:07:43.199Z,37.10
2022-07-26T15:10:12.403Z,37.00
2022-07-26T15:12:41.308Z,37.00
2022-07-26T15:15:10.146Z,37.10
2022-07-26T15:17:38.443Z,37.30
2022-07-26T15:20:07.106Z,37.20
2022-07-26T15:22:35.748Z,37.30
2022-07-26T15:25:03.929Z,37.10
2022-07-26T15:27:31.902Z,37.00
2022-07-26T15:30:04.171Z,37.00
2022-07-26T15:32:34.085Z,37.00
2022-07-26T15:35:01.919Z,37.00
2022-07-26T15:37:29.703Z,37.20
2022-07-26T15:39:57.564Z,37.30
2022-07-26T15:42:25.382Z,37.00
2022-07-26T15:44:53.382Z,36.80
2022-07-26T15:47:51.230Z,36.80
2022-07-26T15:50:11.677Z,36.60
2022-07-26T15:52:41.988Z,36.70
2022-07-26T15:55:11.741Z,36.60
2022-07-26T15:57:40.361Z,36.70
2022-07-26T16:00:11.723Z,36.70
2022-07-26T16:02:40.656Z,36.70
2022-07-26T16:05:09.797Z,36.60
2022-07-26T16:07:38.736Z,36.30
2022-07-26T16:10:06.963Z,36.30
2022-07-26T16:12:34.815Z,36.10
2022-07-26T16:15:02.880Z,36.10
2022-07-26T16:17:31.212Z,36.00
2022-07-26T16:19:59.041Z,35.90
2022-07-26T16:22:26.985Z,35.80
2022-07-26T16:24:54.706Z,35.70
2022-07-26T16:27:22.893Z,35.50
2022-07-26T16:29:52.514Z,35.30
2022-07-26T16:32:21.682Z,35.30
2022-07-26T16:34:49.484Z,35.20
2022-07-26T16:37:17.399Z,35.20
2022-07-26T16:39:45.171Z,35.10
2022-07-26T16:42:12.918Z,35.10
2022-07-26T16:44:40.703Z,35.10
2022-07-26T16:47:08.586Z,35.10
2022-07-26T16:49:36.438Z,35.10
2022-07-26T16:52:04.813Z,34.90
2022-07-26T16:54:33.335Z,34.90
2022-07-26T16:57:01.633Z,34.80
2022-07-26T16:59:29.416Z,34.80
2022-07-26T17:01:59.688Z,34.70
2022-07-26T17:04:30.586Z,34.80
2022-07-26T17:07:23.360Z,34.80
2022-07-26T17:09:46.105Z,34.90
2022-07-26T17:12:13.922Z,35.20
2022-07-26T17:14:41.893Z,35.40
2022-07-26T17:17:09.692Z,35.80
2022-07-26T17:19:37.486Z,36.10
2022-07-26T17:22:05.274Z,36.20
2022-07-26T17:24:33.359Z,36.20
2022-07-26T17:27:01.217Z,36.30
2022-07-26T17:29:29.121Z,36.20
2022-07-26T17:31:56.947Z,36.00
2022-07-26T17:34:24.916Z,35.80
2022-07-26T17:37:05.907Z,35.30
2022-07-26T17:39:51.492Z,35.00
2022-07-26T17:42:20.788Z,34.70
2022-07-26T17:44:48.908Z,34.50
2022-07-26T17:47:28.173Z,34.30
2022-07-26T17:52:48.527Z,33.80
2022-07-26T17:55:18.681Z,33.50
2022-07-26T17:57:48.082Z,33.20
2022-07-26T18:00:17.997Z,33.10
2022-07-26T18:02:45.934Z,33.00
2022-07-26T18:05:14.010Z,32.90
2022-07-26T18:07:41.989Z,32.90
2022-07-26T18:10:11.300Z,32.80
2022-07-26T18:12:39.275Z,32.60
2022-07-26T18:15:08.228Z,32.60
2022-07-26T18:17:36.549Z,32.60
2022-07-26T18:20:06.262Z,32.60
2022-07-26T18:22:34.309Z,32.40
2022-07-26T18:25:02.371Z,32.40
2022-07-26T18:27:30.357Z,32.40
2022-07-26T18:29:58.642Z,32.40
2022-07-26T18:32:27.056Z,32.20
2022-07-26T18:34:55.485Z,32.20
2022-07-26T18:37:23.246Z,32.10
2022-07-26T18:39:57.070Z,31.90
2022-07-26T18:42:26.195Z,31.90
2022-07-26T18:44:53.953Z,31.70
2022-07-26T18:47:22.856Z,31.70
2022-07-26T18:49:50.805Z,31.70
2022-07-26T18:52:28.576Z,31.50
2022-07-26T18:55:02.346Z,31.50
2022-07-26T18:57:30.198Z,31.50
2022-07-26T18:59:57.971Z,31.40
2022-07-26T19:02:25.887Z,31.40
2022-07-26T19:04:54.069Z,31.40
2022-07-26T19:07:21.815Z,31.30
2022-07-26T19:09:50.919Z,31.10
2022-07-26T19:12:20.411Z,31.10
2022-07-26T19:14:48.069Z,31.10
2022-07-26T19:17:15.960Z,31.10
2022-07-26T19:19:43.824Z,31.10
2022-07-26T19:22:11.692Z,31.10
2022-07-26T19:24:42.672Z,31.20
2022-07-26T19:27:10.576Z,31.00
2022-07-26T19:29:38.601Z,31.10
2022-07-26T19:32:07.059Z,31.10
2022-07-26T19:34:35.102Z,31.00
2022-07-26T19:37:03.458Z,31.10
2022-07-26T19:39:31.237Z,31.10
2022-07-26T19:41:59.405Z,31.10
2022-07-26T19:44:27.213Z,30.90
2022-07-26T19:46:57.719Z,30.80
2022-07-26T19:49:25.875Z,30.70
2022-07-26T19:51:53.742Z,30.60
2022-07-26T19:54:21.600Z,30.60
2022-07-26T19:56:49.622Z,30.60
2022-07-26T19:59:22.998Z,30.60
2022-07-26T20:01:53.098Z,30.50
2022-07-26T20:04:21.832Z,30.60
2022-07-26T20:06:50.350Z,30.40
2022-07-26T20:09:18.301Z,30.50
2022-07-26T20:11:50.912Z,30.30
2022-07-26T20:14:20.055Z,30.30
2022-07-26T20:16:52.936Z,30.40
2022-07-26T20:19:24.913Z,30.30
2022-07-26T20:21:52.674Z,30.30
2022-07-26T20:24:20.770Z,30.40
2022-07-26T20:26:48.623Z,30.50
2022-07-26T20:29:16.423Z,30.40
2022-07-26T20:31:44.250Z,30.40
2022-07-26T20:34:12.360Z,30.50
2022-07-26T20:36:40.247Z,30.50
2022-07-26T20:39:09.532Z,30.40
2022-07-26T20:41:37.478Z,30.30
2022-07-26T20:44:06.800Z,30.20
2022-07-26T20:46:40.079Z,30.30
2022-07-26T20:49:09.423Z,30.20
2022-07-26T20:51:38.046Z,30.20
2022-07-26T20:54:06.645Z,30.10
2022-07-26T20:56:34.543Z,30.00
2022-07-26T20:59:02.471Z,29.90
2022-07-26T21:01:31.093Z,29.80
2022-07-26T21:03:59.603Z,29.70
2022-07-26T21:06:27.469Z,29.70
2022-07-26T21:08:58.010Z,29.60
2022-07-26T21:11:26.326Z,29.60
2022-07-26T21:13:54.200Z,29.50
2022-07-26T21:16:22.106Z,29.40
2022-07-26T21:18:52.911Z,29.40
2022-07-26T21:21:21.821Z,29.40
2022-07-26T21:23:49.916Z,29.30
2022-07-26T21:26:17.720Z,29.40
2022-07-26T21:28:45.492Z,29.30
2022-07-26T21:31:13.409Z,29.20
2022-07-26T21:33:41.206Z,29.20
2022-07-26T21:36:09.069Z,29.20
2022-07-26T21:38:36.831Z,29.10
2022-07-26T21:41:04.599Z,29.20
2022-07-26T21:43:32.852Z,29.30
2022-07-26T21:46:00.945Z,29.20
2022-07-26T21:48:30.227Z,29.20
2022-07-26T21:50:58.004Z,29.30
2022-07-26T21:53:25.729Z,29.30
2022-07-26T21:55:53.499Z,29.20
2022-07-26T21:58:21.256Z,29.10
2022-07-26T22:00:49.221Z,29.10
2022-07-26T22:03:17.019Z,29.00
2022-07-26T22:05:45.411Z,29.10
2022-07-26T22:08:15.450Z,29.20
2022-07-26T22:10:45.262Z,29.10
2022-07-26T22:13:14.238Z,29.30
2022-07-26T22:15:42.550Z,29.20
2022-07-26T22:18:10.557Z,29.20
2022-07-26T22:20:38.945Z,29.20
2022-07-26T22:23:09.716Z,29.10
2022-07-26T22:25:38.836Z,29.30
2022-07-26T22:28:07.951Z,29.20
2022-07-26T22:30:36.165Z,29.30
2022-07-26T22:33:06.413Z,29.20
2022-07-26T22:35:36.481Z,29.20
2022-07-26T22:38:06.965Z,29.30
2022-07-26T22:40:35.665Z,29.20
2022-07-26T22:43:03.868Z,29.30
2022-07-26T22:45:32.149Z,29.30
2022-07-26T22:48:01.561Z,29.30
2022-07-26T22:50:29.642Z,29.40
2022-07-26T22:52:57.800Z,29.40
2022-07-26T22:55:25.598Z,29.30
2022-07-26T22:57:54.113Z,29.30
2022-07-26T23:00:22.052Z,29.20
2022-07-26T23:02:49.869Z,29.30
2022-07-26T23:05:17.856Z,29.20
2022-07-26T23:07:48.369Z,29.20
2022-07-26T23:10:16.898Z,29.10
2022-07-26T23:12:45.077Z,29.20
2022-07-26T23:15:13.538Z,29.00
2022-07-26T23:17:41.477Z,29.00
2022-07-26T23:20:10.789Z,29.00
2022-07-26T23:22:41.966Z,29.00
2022-07-26T23:25:10.000Z,29.00
2022-07-26T23:27:37.827Z,29.10
2022-07-26T23:30:05.989Z,29.10
2022-07-26T23:32:33.718Z,29.10
2022-07-26T23:35:01.521Z,29.20
2022-07-26T23:37:29.355Z,29.20
2022-07-26T23:39:57.155Z,29.20
2022-07-26T23:42:24.895Z,29.20
2022-07-26T23:44:52.640Z,29.10
2022-07-26T23:47:20.408Z,29.10
2022-07-26T23:49:48.135Z,29.20
2022-07-26T23:52:15.893Z,29.20
2022-07-26T23:54:43.688Z,29.30
2022-07-26T23:57:11.463Z,29.20
2022-07-26T23:59:39.308Z,29.20
